Time;durP1;ratioP1;P1;durP2;ratioP2;P2;SDS_P1;SDS_P2;PMS_P1;PMS_P2;Temp;Humidity;BMP_temperature;BMP_pressure;BME280_temperature;BME280_humidity;BME280_pressure;Samples;Min_cycle;Max_cycle;Signal;HPM_P1;HPM_P2
2021/12/31 00:02:28;;;;;;;1.30;0.83;;;0.50;99.90;;;;;;4983229;28;20734;-93
2021/12/31 00:04:59;;;;;;;2.83;1.20;;;0.40;99.90;;;;;;4985652;28;20263;-93
2021/12/31 00:07:30;;;;;;;1.40;1.13;;;0.40;99.90;;;;;;4984986;28;20203;-92
2021/12/31 00:10:03;;;;;;;2.67;1.10;;;0.40;99.90;;;;;;4984007;28;20230;-93
2021/12/31 00:12:35;;;;;;;2.03;1.03;;;0.40;99.90;;;;;;4984581;28;20206;-95
2021/12/31 00:15:07;;;;;;;2.10;1.10;;;0.30;99.90;;;;;;4986275;28;20187;-93
2021/12/31 00:17:39;;;;;;;1.40;1.00;;;0.30;99.90;;;;;;4984525;28;20805;-95
2021/12/31 00:20:14;;;;;;;2.10;0.97;;;0.20;99.90;;;;;;4985419;28;20227;-94
2021/12/31 00:25:32;;;;;;;2.13;0.90;;;0.20;99.90;;;;;;4983493;28;20547;-94
2021/12/31 00:28:03;;;;;;;2.10;1.20;;;0.10;99.90;;;;;;4963167;28;20222;-95
2021/12/31 00:30:36;;;;;;;1.63;1.07;;;0.10;99.90;;;;;;4964176;28;20211;-92
2021/12/31 00:33:08;;;;;;;2.13;1.03;;;0.10;99.90;;;;;;4965399;28;20248;-95
2021/12/31 00:35:40;;;;;;;3.10;2.00;;;0.00;99.90;;;;;;4965534;28;20236;-93
2021/12/31 00:38:11;;;;;;;2.90;1.90;;;0.00;99.90;;;;;;4964854;28;20242;-92
2021/12/31 00:40:45;;;;;;;4.83;2.00;;;-0.10;99.90;;;;;;4966070;28;20237;-93
2021/12/31 00:43:17;;;;;;;2.60;1.77;;;-0.10;99.90;;;;;;4965497;28;20226;-92
2021/12/31 00:45:48;;;;;;;2.67;1.90;;;-0.20;99.90;;;;;;4965751;28;20260;-93
2021/12/31 00:48:19;;;;;;;2.70;1.50;;;-0.20;99.90;;;;;;4963075;28;20216;-94
2021/12/31 00:50:51;;;;;;;3.27;1.80;;;-0.20;99.90;;;;;;4964118;28;20699;-94
2021/12/31 00:53:22;;;;;;;2.20;1.20;;;-0.20;99.90;;;;;;4964219;28;20243;-94
2021/12/31 00:55:56;;;;;;;4.57;1.20;;;-0.20;99.90;;;;;;4963233;28;20207;-94
2021/12/31 00:58:29;;;;;;;2.27;1.57;;;-0.20;99.90;;;;;;4963581;28;20265;-94
2021/12/31 01:01:01;;;;;;;3.33;1.40;;;-0.20;99.90;;;;;;4965085;28;20258;-92
2021/12/31 01:03:33;;;;;;;2.70;1.40;;;-0.30;99.90;;;;;;4963121;28;20214;-93
2021/12/31 01:06:07;;;;;;;1.80;1.30;;;-0.30;99.90;;;;;;4970306;28;20288;-93
2021/12/31 01:08:39;;;;;;;3.63;1.80;;;-0.30;99.90;;;;;;4983030;28;20300;-93
2021/12/31 01:11:13;;;;;;;2.47;1.40;;;-0.20;99.90;;;;;;4981907;28;20608;-95
2021/12/31 01:13:54;;;;;;;4.93;1.57;;;-0.20;99.90;;;;;;4993200;28;20287;-94
2021/12/31 01:16:34;;;;;;;2.50;1.37;;;-0.30;99.90;;;;;;5002122;28;20247;-93
2021/12/31 01:21:53;;;;;;;1.33;0.90;;;-0.40;99.90;;;;;;4997144;28;20210;-94
2021/12/31 01:24:25;;;;;;;1.47;0.90;;;-0.40;99.90;;;;;;5003068;28;20214;-93
2021/12/31 01:26:58;;;;;;;2.87;1.30;;;-0.40;99.90;;;;;;5002569;28;20212;-93
2021/12/31 01:29:30;;;;;;;1.87;1.33;;;-0.50;99.90;;;;;;5002878;28;20277;-94
2021/12/31 01:32:01;;;;;;;3.47;1.40;;;-0.50;99.90;;;;;;5002832;28;20264;-94
2021/12/31 01:34:32;;;;;;;2.63;1.17;;;-0.40;99.90;;;;;;5001328;28;20277;-93
2021/12/31 01:37:04;;;;;;;1.60;1.10;;;-0.40;99.90;;;;;;5000718;28;20267;-92
2021/12/31 01:39:36;;;;;;;1.00;0.80;;;-0.40;99.90;;;;;;5002570;28;20208;-92
2021/12/31 01:42:12;;;;;;;1.57;1.20;;;-0.50;99.90;;;;;;5000620;28;20241;-92
2021/12/31 01:44:52;;;;;;;4.40;1.53;;;-0.50;99.90;;;;;;5003604;28;20627;-93
2021/12/31 01:47:33;;;;;;;1.37;1.23;;;-0.50;99.90;;;;;;5001653;28;20686;-91
2021/12/31 01:50:08;;;;;;;1.80;1.27;;;-0.50;99.90;;;;;;5002039;28;20282;-95
2021/12/31 01:52:40;;;;;;;2.70;1.33;;;-0.50;99.90;;;;;;5004589;28;20210;-92
2021/12/31 01:55:13;;;;;;;3.73;1.40;;;-0.50;99.90;;;;;;5000618;28;20276;-92
2021/12/31 01:57:47;;;;;;;2.20;1.30;;;-0.50;99.90;;;;;;4988056;28;20233;-94
2021/12/31 02:00:18;;;;;;;3.27;1.50;;;-0.50;99.90;;;;;;4984443;28;20209;-94
2021/12/31 02:02:50;;;;;;;1.93;1.50;;;-0.50;99.90;;;;;;4984238;28;20220;-94
2021/12/31 02:05:20;;;;;;;2.37;1.60;;;-0.50;99.90;;;;;;4983895;28;20206;-94
2021/12/31 02:07:52;;;;;;;3.00;2.00;;;-0.50;99.90;;;;;;4988093;28;20246;-93
2021/12/31 02:10:23;;;;;;;3.57;1.90;;;-0.50;99.90;;;;;;4988046;28;20216;-93
2021/12/31 02:12:57;;;;;;;2.87;1.90;;;-0.50;99.90;;;;;;4992738;28;20230;-93
2021/12/31 02:15:30;;;;;;;3.17;2.00;;;-0.50;99.90;;;;;;4997688;28;20204;-93
2021/12/31 02:18:03;;;;;;;2.77;2.10;;;-0.50;99.90;;;;;;4989161;28;20234;-93
2021/12/31 02:20:44;;;;;;;3.13;1.97;;;-0.50;99.90;;;;;;4982692;28;20214;-94
2021/12/31 02:23:20;;;;;;;2.90;1.77;;;-0.50;99.90;;;;;;4982026;28;20227;-94
2021/12/31 02:25:51;;;;;;;5.33;1.80;;;-0.50;99.90;;;;;;4982785;28;20230;-93
2021/12/31 02:28:22;;;;;;;3.00;2.10;;;-0.50;99.90;;;;;;4980420;28;20830;-92
2021/12/31 02:31:00;;;;;;;3.77;2.07;;;-0.50;99.90;;;;;;4984307;28;20203;-94
2021/12/31 02:33:34;;;;;;;3.53;2.23;;;-0.50;99.90;;;;;;4980850;28;20357;-94
2021/12/31 02:36:09;;;;;;;3.57;1.97;;;-0.50;99.90;;;;;;4981661;28;20680;-93
2021/12/31 02:38:40;;;;;;;3.73;2.30;;;-0.50;99.90;;;;;;4980577;28;20627;-93
2021/12/31 02:41:11;;;;;;;2.50;2.10;;;-0.50;99.90;;;;;;4980461;28;20210;-93
2021/12/31 02:43:43;;;;;;;2.83;1.90;;;-0.50;99.90;;;;;;4979427;28;20214;-93
2021/12/31 02:46:14;;;;;;;3.17;1.93;;;-0.50;99.90;;;;;;4978599;28;20664;-94
2021/12/31 02:48:55;;;;;;;2.87;1.87;;;-0.50;99.90;;;;;;4981993;28;20210;-94
2021/12/31 02:51:30;;;;;;;3.43;2.00;;;-0.50;99.90;;;;;;4979239;28;20213;-92
2021/12/31 02:54:03;;;;;;;4.40;2.17;;;-0.50;99.90;;;;;;4978795;28;20225;-93
2021/12/31 02:56:34;;;;;;;3.23;1.93;;;-0.50;99.90;;;;;;4978085;28;20214;-93
2021/12/31 02:59:06;;;;;;;2.73;1.80;;;-0.50;99.90;;;;;;4978191;28;20252;-95
2021/12/31 03:01:38;;;;;;;4.17;2.07;;;-0.50;99.90;;;;;;4961477;28;20205;-94
2021/12/31 03:04:09;;;;;;;4.03;2.43;;;-0.50;99.90;;;;;;4978115;28;20214;-94
2021/12/31 03:06:46;;;;;;;2.50;1.87;;;-0.50;99.90;;;;;;4977781;28;20215;-93
2021/12/31 03:09:21;;;;;;;5.33;2.20;;;-0.50;99.90;;;;;;4978820;28;20248;-93
2021/12/31 03:11:56;;;;;;;2.50;2.00;;;-0.50;99.90;;;;;;4977415;28;20244;-94
2021/12/31 03:14:30;;;;;;;4.00;2.60;;;-0.50;99.90;;;;;;4978098;28;20264;-93
2021/12/31 03:17:02;;;;;;;4.00;2.30;;;-0.60;99.90;;;;;;4979521;28;20218;-95
2021/12/31 03:19:33;;;;;;;4.67;2.57;;;-0.60;99.90;;;;;;4981086;28;20306;-95
2021/12/31 03:22:06;;;;;;;3.63;2.10;;;-0.60;99.90;;;;;;4979589;28;20211;-95
2021/12/31 03:24:37;;;;;;;4.07;2.50;;;-0.60;99.90;;;;;;4979805;28;20210;-94
2021/12/31 03:27:08;;;;;;;4.20;2.00;;;-0.60;99.90;;;;;;4977608;28;20210;-93
2021/12/31 03:29:39;;;;;;;4.70;2.50;;;-0.60;99.90;;;;;;4979032;28;20253;-94
2021/12/31 03:32:10;;;;;;;3.67;2.30;;;-0.60;99.90;;;;;;4979261;28;20207;-94
2021/12/31 03:34:41;;;;;;;5.40;2.70;;;-0.50;99.90;;;;;;4980017;28;20743;-93
2021/12/31 03:37:14;;;;;;;3.33;2.53;;;-0.50;99.90;;;;;;4979188;28;20238;-92
2021/12/31 03:39:46;;;;;;;3.93;2.90;;;-0.50;99.90;;;;;;4979215;28;20260;-94
2021/12/31 03:42:18;;;;;;;4.03;2.40;;;-0.60;99.90;;;;;;4980305;28;20213;-94
2021/12/31 03:44:49;;;;;;;5.43;2.80;;;-0.50;99.90;;;;;;4998342;28;20216;-93
2021/12/31 03:47:20;;;;;;;4.60;2.80;;;-0.60;99.90;;;;;;4998476;28;20245;-95
2021/12/31 03:49:51;;;;;;;4.13;2.70;;;-0.50;99.90;;;;;;4999158;28;20244;-91
2021/12/31 03:52:24;;;;;;;3.47;2.30;;;-0.60;99.90;;;;;;4997778;28;20736;-92
2021/12/31 03:54:55;;;;;;;3.63;2.40;;;-0.50;99.90;;;;;;4998506;28;20206;-91
2021/12/31 03:57:27;;;;;;;3.77;2.47;;;-0.50;99.90;;;;;;4999228;28;20213;-93
2021/12/31 03:59:58;;;;;;;5.57;2.57;;;-0.50;99.90;;;;;;4999151;28;20265;-93
2021/12/31 04:02:29;;;;;;;4.77;2.53;;;-0.50;99.90;;;;;;4998035;28;20216;-95
2021/12/31 04:05:00;;;;;;;4.23;3.07;;;-0.50;99.90;;;;;;4990189;28;20222;-94
2021/12/31 04:07:34;;;;;;;3.63;2.43;;;-0.50;99.90;;;;;;4960785;28;20618;-94
2021/12/31 04:10:07;;;;;;;3.77;2.40;;;-0.50;99.90;;;;;;4961434;28;20214;-92
2021/12/31 04:12:38;;;;;;;4.67;3.10;;;-0.60;99.90;;;;;;4961873;28;20213;-92
2021/12/31 04:15:09;;;;;;;4.03;2.80;;;-0.50;99.90;;;;;;4958980;28;20210;-93
2021/12/31 04:17:41;;;;;;;3.87;2.63;;;-0.60;99.90;;;;;;4958622;28;20720;-93
2021/12/31 04:20:19;;;;;;;2.80;2.40;;;-0.60;99.90;;;;;;4959335;28;20239;-92
2021/12/31 04:22:54;;;;;;;3.80;2.90;;;-0.60;99.90;;;;;;4960443;28;20243;-94
2021/12/31 04:25:26;;;;;;;4.37;2.50;;;-0.60;99.90;;;;;;4977882;28;20198;-94
2021/12/31 04:27:57;;;;;;;5.00;2.50;;;-0.60;99.90;;;;;;4977270;28;20218;-93
2021/12/31 04:30:29;;;;;;;5.00;2.60;;;-0.60;99.90;;;;;;4979394;28;20203;-92
2021/12/31 04:33:01;;;;;;;2.93;2.13;;;-0.70;99.90;;;;;;4977781;28;20210;-92
2021/12/31 04:35:33;;;;;;;4.23;2.60;;;-0.70;99.90;;;;;;4975784;28;20212;-92
2021/12/31 04:38:05;;;;;;;3.90;3.07;;;-0.70;99.90;;;;;;4965266;28;20239;-95
2021/12/31 04:40:36;;;;;;;4.60;2.73;;;-0.70;99.90;;;;;;4962624;28;20246;-95
2021/12/31 04:43:08;;;;;;;6.50;2.70;;;-0.70;99.90;;;;;;4972091;28;20245;-95
2021/12/31 04:45:39;;;;;;;4.77;2.93;;;-0.70;99.90;;;;;;5000592;28;20213;-94
2021/12/31 04:48:10;;;;;;;5.30;2.70;;;-0.70;99.90;;;;;;4999360;28;20213;-95
2021/12/31 04:50:42;;;;;;;3.47;2.50;;;-0.70;99.90;;;;;;5001928;28;20234;-92
2021/12/31 04:53:15;;;;;;;4.03;2.40;;;-0.70;99.90;;;;;;5004425;28;20213;-93
2021/12/31 04:55:47;;;;;;;6.13;3.13;;;-0.70;99.90;;;;;;5002161;28;20212;-95
2021/12/31 04:58:19;;;;;;;3.83;2.40;;;-0.70;99.90;;;;;;5001210;28;20685;-95
2021/12/31 05:00:49;;;;;;;3.50;2.50;;;-0.70;99.90;;;;;;5001342;28;20643;-94
2021/12/31 05:03:21;;;;;;;3.40;2.43;;;-0.70;99.90;;;;;;5001300;28;20283;-95
2021/12/31 05:05:52;;;;;;;3.37;2.50;;;-0.80;99.90;;;;;;5000984;28;20749;-94
2021/12/31 05:08:26;;;;;;;3.67;2.33;;;-0.80;99.90;;;;;;5000601;28;20242;-94
2021/12/31 05:10:57;;;;;;;3.97;2.50;;;-0.80;99.90;;;;;;5001673;28;20209;-94
2021/12/31 05:13:28;;;;;;;3.83;2.30;;;-0.80;99.90;;;;;;5001613;28;20207;-93
2021/12/31 05:16:03;;;;;;;2.93;2.00;;;-0.80;99.90;;;;;;5001752;28;20265;-94
2021/12/31 05:18:35;;;;;;;4.67;2.47;;;-0.80;99.90;;;;;;5001679;28;20300;-92
2021/12/31 05:21:07;;;;;;;4.03;2.43;;;-0.90;99.90;;;;;;5001352;28;20666;-93
2021/12/31 05:23:43;;;;;;;6.50;3.30;;;-0.90;99.90;;;;;;5001337;28;20205;-94
2021/12/31 05:26:14;;;;;;;3.97;2.80;;;-0.90;99.90;;;;;;5000629;28;20242;-92
2021/12/31 05:28:45;;;;;;;5.73;2.60;;;-0.80;99.90;;;;;;5000784;28;20255;-91
2021/12/31 05:31:17;;;;;;;5.30;2.53;;;-0.90;99.90;;;;;;5002037;28;20714;-96
2021/12/31 05:33:48;;;;;;;7.33;2.53;;;-0.80;99.90;;;;;;5000297;28;20213;-95
2021/12/31 05:36:19;;;;;;;5.30;2.90;;;-0.80;99.90;;;;;;4999713;28;20303;-92
2021/12/31 05:38:53;;;;;;;6.53;2.90;;;-0.80;99.90;;;;;;5000142;28;20293;-93
2021/12/31 05:41:24;;;;;;;4.90;2.70;;;-0.80;99.90;;;;;;5000777;28;20670;-94
2021/12/31 05:43:55;;;;;;;3.90;2.50;;;-0.80;99.90;;;;;;4988835;28;20241;-92
2021/12/31 05:46:26;;;;;;;3.60;2.60;;;-0.80;99.90;;;;;;4979460;28;20226;-92
2021/12/31 05:48:57;;;;;;;4.90;2.90;;;-0.90;99.90;;;;;;4981077;28;20217;-93
2021/12/31 05:51:30;;;;;;;4.20;2.77;;;-0.90;99.90;;;;;;4980788;28;20296;-95
2021/12/31 05:54:02;;;;;;;4.70;2.77;;;-0.80;99.90;;;;;;4980839;28;20240;-95
2021/12/31 05:56:33;;;;;;;3.80;2.30;;;-0.80;99.90;;;;;;4977998;28;20306;-93
2021/12/31 05:59:04;;;;;;;4.03;2.60;;;-0.80;99.90;;;;;;4979839;28;20316;-94
2021/12/31 06:01:35;;;;;;;4.47;2.80;;;-0.80;99.90;;;;;;4978174;28;20259;-95
2021/12/31 06:04:08;;;;;;;4.13;3.07;;;-0.80;99.90;;;;;;4960168;28;20205;-94
2021/12/31 06:06:39;;;;;;;4.13;3.00;;;-0.80;99.90;;;;;;4959000;28;20206;-93
2021/12/31 06:09:13;;;;;;;4.43;2.30;;;-0.80;99.90;;;;;;4961917;28;20301;-93
2021/12/31 06:11:45;;;;;;;4.03;2.43;;;-0.80;99.90;;;;;;4960488;28;20250;-93
2021/12/31 06:14:16;;;;;;;5.03;2.60;;;-0.80;99.90;;;;;;4959685;29;20247;-93
2021/12/31 06:16:48;;;;;;;4.20;2.70;;;-0.80;99.90;;;;;;4959998;28;20211;-92
2021/12/31 06:19:19;;;;;;;3.20;2.60;;;-0.80;99.90;;;;;;4960800;28;20729;-93
2021/12/31 06:21:51;;;;;;;5.33;2.83;;;-0.80;99.90;;;;;;4959604;29;20210;-93
2021/12/31 06:24:26;;;;;;;3.30;2.90;;;-0.80;99.90;;;;;;4960023;28;20209;-94
2021/12/31 06:26:57;;;;;;;6.67;3.03;;;-0.80;99.90;;;;;;4959658;28;20691;-95
2021/12/31 06:29:29;;;;;;;4.10;2.67;;;-0.80;99.90;;;;;;4960770;28;20249;-93
2021/12/31 06:32:00;;;;;;;4.90;3.47;;;-0.80;99.90;;;;;;4960870;28;20247;-92
2021/12/31 06:34:31;;;;;;;5.57;2.83;;;-0.80;99.90;;;;;;4961960;28;20223;-94
2021/12/31 06:37:02;;;;;;;4.77;2.90;;;-0.80;99.90;;;;;;4960555;28;20242;-94
2021/12/31 06:39:36;;;;;;;4.53;3.30;;;-0.90;99.90;;;;;;4961387;28;20715;-93
2021/12/31 06:42:07;;;;;;;5.60;3.80;;;-0.80;99.90;;;;;;4978509;28;20195;-95
2021/12/31 06:44:39;;;;;;;6.37;4.27;;;-0.80;99.90;;;;;;4994686;28;20202;-94
2021/12/31 06:47:11;;;;;;;9.13;5.90;;;-0.80;99.90;;;;;;4993980;28;20202;-94
2021/12/31 06:49:43;;;;;;;8.27;6.17;;;-0.70;99.90;;;;;;4996016;28;20213;-94
2021/12/31 06:52:14;;;;;;;8.53;5.73;;;-0.70;99.90;;;;;;4995101;28;20192;-92
2021/12/31 06:54:47;;;;;;;9.53;5.73;;;-0.70;99.90;;;;;;4981010;28;20261;-94
2021/12/31 06:57:19;;;;;;;6.43;4.80;;;-0.70;99.90;;;;;;4978972;28;20659;-92
2021/12/31 06:59:50;;;;;;;7.27;5.00;;;-0.60;99.90;;;;;;4979694;28;20237;-93
2021/12/31 07:02:23;;;;;;;6.57;4.70;;;-0.70;99.90;;;;;;4978116;28;20237;-95
2021/12/31 07:04:54;;;;;;;6.77;5.37;;;-0.70;99.90;;;;;;4979379;28;20302;-92
2021/12/31 07:07:25;;;;;;;6.20;4.23;;;-0.70;99.90;;;;;;4979106;28;20206;-92
2021/12/31 07:09:58;;;;;;;6.57;4.27;;;-0.80;99.90;;;;;;4979150;28;20214;-93
2021/12/31 07:12:29;;;;;;;6.03;4.27;;;-1.00;99.90;;;;;;4981879;28;20210;-93
2021/12/31 07:15:00;;;;;;;7.57;4.67;;;-1.00;99.90;;;;;;4978968;28;20237;-93
2021/12/31 07:17:31;;;;;;;5.90;3.87;;;-0.90;99.90;;;;;;4972586;28;20210;-93
2021/12/31 07:20:02;;;;;;;5.43;3.20;;;-0.90;99.90;;;;;;4961209;28;20273;-92
2021/12/31 07:22:35;;;;;;;4.37;3.03;;;-0.90;99.90;;;;;;4960649;28;20208;-95
2021/12/31 07:25:10;;;;;;;5.17;3.10;;;-1.00;99.90;;;;;;4960040;28;20211;-94
2021/12/31 07:27:41;;;;;;;4.63;3.00;;;-1.10;99.90;;;;;;4959457;28;20223;-94
2021/12/31 07:30:16;;;;;;;3.90;2.50;;;-1.10;99.90;;;;;;4959131;28;20218;-95
2021/12/31 07:32:48;;;;;;;5.07;3.07;;;-1.10;99.90;;;;;;4961090;28;20238;-93
2021/12/31 07:35:19;;;;;;;4.73;2.90;;;-1.20;99.90;;;;;;4962214;28;20211;-95
2021/12/31 07:37:52;;;;;;;4.17;2.70;;;-1.20;99.90;;;;;;4958966;28;20239;-94
2021/12/31 07:40:32;;;;;;;4.17;3.03;;;-1.20;99.90;;;;;;4959563;28;20290;-93
2021/12/31 07:43:04;;;;;;;4.10;2.73;;;-1.20;99.90;;;;;;4959568;28;20207;-95
2021/12/31 07:45:35;;;;;;;3.57;2.50;;;-1.10;99.90;;;;;;4959657;28;20216;-93
2021/12/31 07:48:09;;;;;;;4.47;2.63;;;-1.10;99.90;;;;;;4958253;28;20210;-94
2021/12/31 07:50:41;;;;;;;5.00;2.67;;;-1.10;99.90;;;;;;4960819;28;20210;-95
2021/12/31 07:53:12;;;;;;;4.00;2.53;;;-1.10;99.90;;;;;;4960450;28;20237;-93
2021/12/31 07:55:45;;;;;;;5.27;2.80;;;-1.00;99.90;;;;;;4972778;28;20281;-94
2021/12/31 07:58:16;;;;;;;4.27;2.83;;;-1.00;99.90;;;;;;4977642;28;20226;-96
2021/12/31 08:00:47;;;;;;;2.53;1.90;;;-1.00;99.90;;;;;;4981163;28;20236;-94
2021/12/31 08:03:20;;;;;;;3.43;2.40;;;-0.90;99.90;;;;;;4978742;28;20205;-94
2021/12/31 08:05:51;;;;;;;4.10;2.70;;;-0.90;99.90;;;;;;4980510;28;20317;-94
2021/12/31 08:08:22;;;;;;;5.53;2.30;;;-0.90;99.90;;;;;;4973099;28;20211;-94
2021/12/31 08:10:56;;;;;;;4.67;2.43;;;-1.00;99.90;;;;;;4959540;28;20236;-94
2021/12/31 08:13:27;;;;;;;3.37;2.03;;;-0.90;99.90;;;;;;4976622;28;20293;-93
2021/12/31 08:15:58;;;;;;;4.47;1.93;;;-0.90;99.90;;;;;;4997621;28;20269;-93
2021/12/31 08:18:29;;;;;;;4.93;2.70;;;-0.90;99.90;;;;;;4998792;28;20222;-93
2021/12/31 08:21:00;;;;;;;3.30;2.23;;;-0.80;99.90;;;;;;4998375;28;21024;-93
2021/12/31 08:23:31;;;;;;;2.57;1.93;;;-0.80;99.90;;;;;;4997680;28;20240;-94
2021/12/31 08:26:05;;;;;;;1.97;1.70;;;-0.90;99.90;;;;;;4999316;28;20241;-93
2021/12/31 08:28:36;;;;;;;3.10;1.87;;;-0.90;99.90;;;;;;4999610;28;20214;-93
2021/12/31 08:31:08;;;;;;;3.10;1.97;;;-0.90;99.90;;;;;;5001113;28;20209;-94
2021/12/31 08:33:40;;;;;;;3.17;2.03;;;-0.90;99.90;;;;;;5003682;28;20241;-93
2021/12/31 08:36:11;;;;;;;3.63;1.80;;;-0.90;99.90;;;;;;5000715;28;20204;-95
2021/12/31 08:38:43;;;;;;;3.83;1.90;;;-0.90;99.90;;;;;;5001362;28;20236;-93
2021/12/31 08:41:17;;;;;;;4.30;2.10;;;-1.00;99.90;;;;;;5000097;28;20362;-94
2021/12/31 08:44:10;;;;;;;3.83;1.97;;;-0.90;99.90;;;;;;4988360;28;20210;-95
2021/12/31 08:46:42;;;;;;;2.43;1.90;;;-0.90;99.90;;;;;;4980551;28;20242;-93
2021/12/31 08:49:13;;;;;;;3.50;2.20;;;-0.90;99.90;;;;;;4982536;28;20218;-93
2021/12/31 08:51:44;;;;;;;2.60;1.90;;;-0.90;99.90;;;;;;4982729;28;20207;-94
2021/12/31 08:54:15;;;;;;;3.20;1.70;;;-1.00;99.90;;;;;;4983232;28;20238;-92
2021/12/31 08:56:48;;;;;;;3.63;2.00;;;-1.00;99.90;;;;;;4984435;28;20277;-91
2021/12/31 08:59:24;;;;;;;3.20;2.03;;;-1.10;99.90;;;;;;4999418;28;20213;-92
2021/12/31 09:01:55;;;;;;;2.67;2.03;;;-1.00;99.90;;;;;;4999215;28;20290;-94
2021/12/31 09:04:26;;;;;;;2.50;1.70;;;-1.00;99.90;;;;;;4991377;28;20220;-94
2021/12/31 09:06:57;;;;;;;2.63;1.73;;;-1.10;99.90;;;;;;4987276;28;20206;-92
2021/12/31 09:09:29;;;;;;;2.67;1.90;;;-1.20;99.90;;;;;;4983991;28;20210;-93
2021/12/31 09:12:02;;;;;;;1.80;1.40;;;-1.20;99.90;;;;;;4982913;28;20230;-92
2021/12/31 09:14:33;;;;;;;2.93;1.50;;;-1.20;99.90;;;;;;5000449;28;20694;-95
2021/12/31 09:17:05;;;;;;;3.00;1.70;;;-1.20;99.90;;;;;;5001101;28;20218;-93
2021/12/31 09:19:36;;;;;;;3.03;1.60;;;-1.30;99.90;;;;;;5001779;28;20214;-94
2021/12/31 09:22:07;;;;;;;2.23;1.40;;;-1.30;99.90;;;;;;5001370;28;20272;-93
2021/12/31 09:24:38;;;;;;;4.30;1.87;;;-1.30;99.90;;;;;;5000671;28;20240;-94
2021/12/31 09:27:11;;;;;;;2.97;1.47;;;-1.50;99.90;;;;;;5000152;28;20267;-92
2021/12/31 09:29:42;;;;;;;2.73;1.60;;;-1.50;99.90;;;;;;5001153;28;20212;-95
2021/12/31 09:32:13;;;;;;;2.67;1.43;;;-1.60;99.90;;;;;;5003619;28;20263;-93
2021/12/31 09:34:46;;;;;;;2.57;1.10;;;-1.60;99.90;;;;;;5000600;28;20219;-94
2021/12/31 09:37:18;;;;;;;2.43;1.40;;;-1.60;99.90;;;;;;4999722;28;20215;-94
2021/12/31 09:39:50;;;;;;;2.87;1.60;;;-1.70;99.90;;;;;;5000963;28;20603;-93
2021/12/31 09:42:23;;;;;;;2.30;1.10;;;-1.70;99.90;;;;;;4998894;28;20230;-92
2021/12/31 09:44:54;;;;;;;2.40;1.50;;;-1.70;99.90;;;;;;4961801;28;20215;-93
2021/12/31 09:47:25;;;;;;;2.83;1.50;;;-1.70;99.90;;;;;;4960836;28;20572;-92
2021/12/31 09:49:56;;;;;;;3.37;2.00;;;-1.70;99.90;;;;;;4961552;28;20295;-93
2021/12/31 09:52:33;;;;;;;2.63;1.60;;;-1.80;99.90;;;;;;4960930;28;20239;-95
2021/12/31 09:55:04;;;;;;;2.77;1.53;;;-1.80;99.90;;;;;;4960547;28;20696;-95
2021/12/31 09:57:38;;;;;;;1.40;1.23;;;-1.80;99.90;;;;;;4960221;28;20207;-95
2021/12/31 10:00:09;;;;;;;1.87;1.40;;;-1.80;99.90;;;;;;4961191;28;20298;-94
2021/12/31 10:02:42;;;;;;;4.47;1.83;;;-1.90;99.90;;;;;;4961100;28;20716;-94
2021/12/31 10:05:14;;;;;;;2.13;1.50;;;-2.10;99.90;;;;;;4963021;28;20201;-93
2021/12/31 10:07:45;;;;;;;4.10;1.63;;;-2.20;99.90;;;;;;4979194;28;20239;-93
2021/12/31 10:10:20;;;;;;;2.40;1.60;;;-2.20;99.90;;;;;;4979963;28;20298;-92
2021/12/31 10:12:56;;;;;;;2.00;1.43;;;-2.10;99.90;;;;;;4983629;28;20254;-92
2021/12/31 10:15:27;;;;;;;2.63;1.33;;;-2.10;99.90;;;;;;4999559;28;20214;-95
2021/12/31 10:17:59;;;;;;;2.83;1.80;;;-2.10;99.90;;;;;;4998852;28;21045;-93
2021/12/31 10:20:30;;;;;;;3.67;2.20;;;-2.20;99.90;;;;;;4999601;28;20683;-92
2021/12/31 10:23:16;;;;;;;3.93;1.80;;;-2.30;99.90;;;;;;4998759;28;20238;-92
2021/12/31 10:25:48;;;;;;;2.37;1.47;;;-2.20;99.90;;;;;;4999314;28;20218;-93
2021/12/31 10:28:22;;;;;;;4.50;2.00;;;-2.20;99.90;;;;;;4996939;28;20253;-92
2021/12/31 10:31:10;;;;;;;2.13;1.40;;;-2.10;99.90;;;;;;4997817;28;20240;-93
2021/12/31 10:33:45;;;;;;;2.53;1.50;;;-2.10;99.90;;;;;;4998064;28;20215;-93
2021/12/31 10:36:37;;;;;;;3.23;1.60;;;-2.00;99.90;;;;;;4998423;28;20611;-91
2021/12/31 10:39:20;;;;;;;3.23;1.30;;;-2.00;99.90;;;;;;4999348;28;20213;-92
2021/12/31 10:42:03;;;;;;;3.63;1.90;;;-2.00;99.90;;;;;;5000309;28;20283;-92
2021/12/31 10:44:47;;;;;;;2.33;1.40;;;-2.00;99.90;;;;;;4982604;28;20246;-93
2021/12/31 10:47:21;;;;;;;1.90;1.53;;;-2.10;99.90;;;;;;4980403;28;20241;-92
2021/12/31 10:50:11;;;;;;;2.00;1.67;;;-2.10;99.90;;;;;;4981161;28;20238;-92
2021/12/31 10:52:53;;;;;;;2.23;1.27;;;-2.40;99.90;;;;;;4981686;28;20668;-92
2021/12/31 10:55:29;;;;;;;2.57;1.50;;;-2.40;99.90;;;;;;4981026;28;20246;-92
2021/12/31 10:58:03;;;;;;;2.40;1.43;;;-2.40;99.90;;;;;;4979254;28;20733;-94
2021/12/31 11:00:38;;;;;;;3.80;1.37;;;-2.40;99.90;;;;;;4979293;28;20212;-93
2021/12/31 11:03:11;;;;;;;2.50;1.40;;;-2.50;99.90;;;;;;4979506;28;20311;-92
2021/12/31 11:05:44;;;;;;;1.80;1.03;;;-2.50;99.90;;;;;;4981276;28;20255;-93
2021/12/31 11:08:15;;;;;;;3.17;1.60;;;-2.50;99.90;;;;;;4981179;28;20676;-93
2021/12/31 11:10:47;;;;;;;2.37;1.30;;;-2.50;99.90;;;;;;4980075;28;20293;-93
2021/12/31 11:13:20;;;;;;;4.50;1.63;;;-2.50;99.90;;;;;;4979099;28;20302;-94
2021/12/31 11:15:54;;;;;;;2.03;1.63;;;-2.40;99.90;;;;;;5017755;23;20230;-93
2021/12/31 11:18:26;;;;;;;1.37;1.07;;;-2.40;99.90;;;;;;4996311;28;20292;-95
2021/12/31 11:21:02;;;;;;;2.70;1.10;;;-2.40;99.90;;;;;;4996791;28;20226;-94
2021/12/31 11:23:36;;;;;;;2.80;1.30;;;-2.40;99.90;;;;;;4995563;28;20224;-93
2021/12/31 11:26:10;;;;;;;3.37;1.47;;;-2.40;99.90;;;;;;4995164;28;20210;-93
2021/12/31 11:28:44;;;;;;;2.80;1.20;;;-2.40;99.90;;;;;;4984814;28;20206;-92
2021/12/31 11:31:29;;;;;;;2.27;1.23;;;-2.40;99.90;;;;;;4978122;28;20211;-93
2021/12/31 11:34:27;;;;;;;4.07;1.80;;;-2.40;99.90;;;;;;4978701;28;20267;-92
2021/12/31 11:36:57;;;;;;;1.70;1.10;;;-2.40;99.90;;;;;;4977375;28;20230;-93
2021/12/31 11:39:32;;;;;;;1.77;1.33;;;-2.40;99.90;;;;;;4978751;28;20214;-93
2021/12/31 11:42:05;;;;;;;2.13;1.40;;;-2.30;99.90;;;;;;4979779;28;20262;-92
2021/12/31 11:44:38;;;;;;;2.20;1.40;;;-2.30;99.90;;;;;;4979864;28;20245;-93
2021/12/31 11:47:15;;;;;;;1.77;1.17;;;-2.30;99.90;;;;;;4960456;28;20698;-93
2021/12/31 11:49:48;;;;;;;2.50;1.20;;;-2.30;99.90;;;;;;4980103;28;20603;-93
2021/12/31 11:52:23;;;;;;;1.70;1.30;;;-2.30;99.90;;;;;;4978642;28;20276;-94
2021/12/31 11:55:18;;;;;;;2.57;1.33;;;-2.30;99.90;;;;;;4980498;28;20245;-94
2021/12/31 11:57:52;;;;;;;3.47;1.53;;;-2.30;99.90;;;;;;4978718;28;20343;-93
2021/12/31 12:00:28;;;;;;;3.73;1.50;;;-2.30;99.90;;;;;;4981315;28;20670;-95
2021/12/31 12:03:02;;;;;;;3.50;1.40;;;-2.20;99.90;;;;;;4982819;28;20249;-93
2021/12/31 12:05:43;;;;;;;1.47;1.13;;;-2.20;99.90;;;;;;4982756;28;20215;-93
2021/12/31 12:08:27;;;;;;;1.77;1.37;;;-2.20;99.90;;;;;;4982065;28;20206;-93
2021/12/31 12:10:58;;;;;;;1.80;1.30;;;-2.10;99.90;;;;;;4982140;28;20402;-92
2021/12/31 12:13:29;;;;;;;1.53;1.33;;;-2.10;99.90;;;;;;4992239;28;20230;-93
2021/12/31 12:16:03;;;;;;;2.53;1.40;;;-2.10;99.90;;;;;;5004449;28;20298;-94
2021/12/31 12:18:57;;;;;;;2.27;1.80;;;-2.00;99.90;;;;;;5002813;28;20212;-93
2021/12/31 12:21:39;;;;;;;3.03;1.80;;;-2.00;99.90;;;;;;5018250;28;20191;-94
2021/12/31 12:24:11;;;;;;;1.80;1.23;;;-2.10;99.90;;;;;;5017472;28;20582;-94
2021/12/31 12:26:43;;;;;;;6.60;1.67;;;-2.00;99.90;;;;;;5019195;28;20206;-94
2021/12/31 12:29:24;;;;;;;2.83;1.50;;;-2.00;99.90;;;;;;5019472;28;20213;-94
2021/12/31 12:32:10;;;;;;;2.60;1.50;;;-2.00;99.90;;;;;;5017726;28;20190;-93
2021/12/31 12:34:42;;;;;;;3.87;1.43;;;-2.00;99.90;;;;;;5019867;28;20239;-92
2021/12/31 12:37:13;;;;;;;1.73;1.43;;;-2.00;99.90;;;;;;5018797;28;20186;-92
2021/12/31 12:39:45;;;;;;;2.73;1.67;;;-2.10;99.90;;;;;;5006391;28;20206;-93
2021/12/31 12:42:18;;;;;;;2.87;1.70;;;-2.10;99.90;;;;;;5005432;28;20202;-94
2021/12/31 12:45:01;;;;;;;2.77;1.60;;;-2.10;99.90;;;;;;4991968;28;20246;-95
2021/12/31 12:47:32;;;;;;;2.77;1.40;;;-2.10;99.90;;;;;;4990486;28;20211;-92
2021/12/31 12:50:09;;;;;;;2.70;1.37;;;-2.00;99.90;;;;;;4991073;28;20234;-92
2021/12/31 12:52:40;;;;;;;2.80;1.77;;;-2.00;99.90;;;;;;4990174;28;20215;-93
2021/12/31 12:55:14;;;;;;;3.23;1.83;;;-2.10;99.90;;;;;;4990320;28;20211;-92
2021/12/31 12:57:54;;;;;;;2.70;1.53;;;-2.10;99.90;;;;;;4989172;28;20215;-92
2021/12/31 13:00:38;;;;;;;2.93;1.50;;;-2.20;99.90;;;;;;4970354;28;20204;-94
2021/12/31 13:03:11;;;;;;;3.27;1.93;;;-2.20;99.90;;;;;;4965150;28;20274;-93
2021/12/31 13:05:45;;;;;;;3.97;1.70;;;-2.20;99.90;;;;;;4965567;28;20243;-93
2021/12/31 13:08:18;;;;;;;5.57;2.30;;;-2.20;99.90;;;;;;4963465;28;20216;-93
2021/12/31 13:10:50;;;;;;;7.37;2.00;;;-2.20;99.90;;;;;;4978412;28;20210;-94
2021/12/31 13:13:21;;;;;;;3.17;1.90;;;-2.20;99.90;;;;;;4994945;28;20239;-94
2021/12/31 13:15:54;;;;;;;3.30;1.73;;;-2.20;99.90;;;;;;4982188;28;20698;-93
2021/12/31 13:18:31;;;;;;;3.07;1.77;;;-2.30;99.90;;;;;;4984560;28;20241;-94
2021/12/31 13:21:06;;;;;;;3.07;1.67;;;-2.30;99.90;;;;;;4983339;28;20251;-93
2021/12/31 13:23:39;;;;;;;4.03;2.13;;;-2.20;99.90;;;;;;4983191;28;20274;-94
2021/12/31 13:26:22;;;;;;;3.23;1.73;;;-2.20;99.90;;;;;;4983501;28;20207;-92